Arnos Vale, Saint Vincent

4:07 PM AST on March 30, 2015 (GMT -0400)
E T Joshua | | Change Station
CLOSE
Current Station
Airport
Location: Arnos Vale,
Elevation: 43 ft
Nearby Weather Stations

Elev 43 ft 13.14 °N, 61.21 °W | Updated 7 minutes ago

Partly Cloudy
Partly Cloudy
82 °F
Feels Like 85 °F
N
18
Wind Variable Wind from East

Today
High -- | Low -- °F
--% Chance of Precip.
Yesterday
High -- | Low -- °F
Precip. -- in
6:02 AM 6:16 PM
Waxing Gibbous, 82% visible
Pressure 29.98 in
Visibility 6.2 miles
Clouds Few 2200 ft
Heat Index 85 °F
Dew Point 66 °F
Humidity 58%
Rainfall 0.00 in
Snow Depth Not available.
UV 5 out of 12
Pollen Not available.
Air Quality Not available.
Flu Activity Not available.
METAR TVSV 302000Z 09016KT 9999 FEW022 28/19 Q1015

More Conditions Fewer Conditions

Pressure 29.98 in
Visibility 6.2 miles
Clouds Few 2200 ft
Heat Index 85 °F
Dew Point 66 °F
Humidity 58%
Rainfall 0.00 in
Snow Depth Not available.
UV 5 out of 12
Pollen Not available.
Air Quality Not available.
Flu Activity Not available.
METAR TVSV 302000Z 09016KT 9999 FEW022 28/19 Q1015

More Conditions Fewer Conditions

10-Day Weather Forecast

Almanac

Astronomy

Mar. 30, 2015 Rise Set
Actual Time
Civil Twilight
Nautical Twilight
Astronomical Twilight
Moon
Length of Visible Light
Length of Day
Tomorrow will be .
, % of the Moon is Illuminated

Today's Extremes

Country Highs Country Lows

Community

WunderPhotos

Upload Photos

1,809,578 photos uploaded!

WunderBlogs® & News

Nearby

Air Quality

  Air Quality AQ Index Pollutant
Not available.

Snow Depth

Station Depth Elevation

Earthquake Activity

City Distance Mag. Time & Date
Minimum magnitude displayed is 2.5.

Coastal Water Temperatures

Place Temperature

Stations

Nearby Weather Stations

Station Location Temp. Windchill Dew Point Humidity Wind Precip. Elev Updated Type